Phatthaya, Thailand

11:14 AM ICT on December 11, 2016 (GMT +0700)
Na Kluea | | Change Station

Elev 0 ft 12.90 °N, 100.87 °E | Updated 2 minutes ago

Partly Cloudy
Partly Cloudy
83.5 °F
Feels Like 86 °F
N
1.2
Wind Variable Wind from SE
Gusts 5.0 mph

Today
High -- | Low -- °F
--% Chance of Precip.
Yesterday
High -- | Low -- °F
Precip. -- in
Pressure 29.86 in
Visibility 1.9 miles
Clouds Few 2500 ft
Heat Index 86 °F
Dew Point 67 °F
Humidity 57%
Rainfall 0.00 in
Snow Depth Not available.
6:28 AM 5:51 PM
Waxing Gibbous, 88% visible
METAR VTBU 110400Z 01008KT 3000 HZ FEW025 30/16 Q1011 NOSIG
Pressure 29.86 in
Visibility 1.9 miles
Clouds Few 2500 ft
Heat Index 86 °F
Dew Point 67 °F
Humidity 57%
Rainfall 0.00 in
Snow Depth Not available.
6:28 AM 5:51 PM
Waxing Gibbous, 88% visible
METAR VTBU 110400Z 01008KT 3000 HZ FEW025 30/16 Q1011 NOSIG

10-Day Weather Forecast

No radar image for this location.
×

Almanac

Astronomy

Dec. 11, 2016 Rise Set
Actual Time
Civil Twilight
Nautical Twilight
Astronomical Twilight
Moon
Length of Visible Light
Length of Day
Tomorrow will be .
, % of the Moon is Illuminated

Today's Extremes

Country Highs Country Lows

Community

WunderPhotos

Upload Photos

1,956,704 photos uploaded!

WunderBlog® & News

Nearby

Air Quality

  Air Quality AQ Index Pollutant
Not available.

Snow Depth

Station Depth Elevation

Earthquake Activity

City Distance Mag. Time & Date
Minimum magnitude displayed is 2.5.

Coastal Water Temperatures

Place Temperature

Stations

Nearby Weather Stations

Station Location Temp. Windchill Dew Point Humidity Wind Precip. Elev Updated Type